K3V5 weather

CLOSED Fort Collins Downtown Airport
Fort Collins, Colorado, United States

Public forecast

Using degrees Fahrenheit for public forecast. Weather courtesy of forecast.io.

Closest aviation weather report (METAR) to Fort Collins Downtown Airport

Closest report is Northern Colorado Regional Airport, 8.3 nm (15.4 km) S. Retrieved 2020/02/18 14:56 UTC (40 minutes ago):

KFNL 181456Z AUTO 22003KT 10SM CLR M11/M12 A3024 RMK AO2 SLP282 T11061117 53012 FZRANO

Closest aviation forecast (TAF) to Fort Collins Downtown Airport

Closest forecast is Cheyenne Regional Jerry Olson Field, 35.6 nm (66.0 km) NNE. Retrieved 2020/02/18 12:30 UTC (3 hours ago):

TAF KCYS 181120Z 1812/1912 28010KT P6SM SKC FM181700 28012G20KT P6SM SKC FM182300 31012KT P6SM FEW180 FM190100 VRB05KT P6SM SCT120